Mariner A — 9HVA7 — position and weather

sailwx.info

Track history (hours):
 
Tides and Currents Weather Stations Pressure Air Temp Water Temp Dewpoint Dewpoint Depression Visibility Wind Speed Wind Dir Waves Ship Positions

Mariner A

Last reported at 2016-Jan-12 00:13 UTC. Time now 2016-Feb-08 17:02 UTC.
Position N 35°26' E 027°38'.
Warning: this ship's position is 27 days out of date.

Length 176 m; draft 9.4 m.

Type: Tanker. MMSI: 215817000.

Date/timePositionNaut miles runAvg speedWind from/ knotsBaromVisibWave heightAir tempDewpointWater temp
2016-Jan-12 00:13N 35°26' E 027°38'2512.9
2016-Jan-11 22:16N 35°49' E 027°26'6212.7
2016-Jan-11 17:22N 36°37' E 026°37'3913.6
2016-Jan-11 14:31N 37°07' E 026°07'1513.7
2016-Jan-11 13:25N 37°21' E 025°58'1213.8
2016-Jan-11 12:33N 37°31' E 025°52'  
2016-Jan-03 21:03N 40°59' E 028°60'610.7
2016-Jan-03 20:29N 40°54' E 028°56'15 1.9
2016-Jan-03 12:32N 40°40' E 028°49'2 1.7
2016-Jan-03 11:29N 40°41' E 028°51'1 1.4
2016-Jan-03 10:33N 40°41' E 028°53'1 1.2
2016-Jan-03 09:30N 40°42' E 028°54'1 1.1
2016-Jan-03 08:33N 40°43' E 028°55'1 1.0
2016-Jan-03 07:32N 40°44' E 028°56'1 0.9
2016-Jan-03 06:33N 40°45' E 028°57'1 0.9
2016-Jan-03 05:29N 40°45' E 028°57'4 4.3
2016-Jan-03 04:33N 40°48' E 028°53'23310.0
2016-Jan-02 05:10N 37°41' E 025°51'914.1
2016-Jan-02 04:33N 37°33' E 025°52'  
Track history (hours):
 
Tides and Currents Weather Stations Pressure Air Temp Water Temp Dewpoint Dewpoint Depression Visibility Wind Speed Wind Dir Waves Ship Positions

Mariner A

Last reported at 2016-Jan-12 00:13 UTC. Time now 2016-Feb-08 17:02 UTC.
Position N 35°26' E 027°38'.
Warning: this ship's position is 27 days out of date.

Length 176 m; draft 9.4 m.

Type: Tanker. MMSI: 215817000.

Date/timePositionNaut miles runAvg speedWind from/ knotsBaromVisibWave heightAir tempDewpointWater temp
2016-Jan-12 00:13N 35°26' E 027°38'2512.9
2016-Jan-11 22:16N 35°49' E 027°26'6212.7
2016-Jan-11 17:22N 36°37' E 026°37'3913.6
2016-Jan-11 14:31N 37°07' E 026°07'1513.7
2016-Jan-11 13:25N 37°21' E 025°58'1213.8
2016-Jan-11 12:33N 37°31' E 025°52'  
2016-Jan-03 21:03N 40°59' E 028°60'610.7
2016-Jan-03 20:29N 40°54' E 028°56'15 1.9
2016-Jan-03 12:32N 40°40' E 028°49'2 1.7
2016-Jan-03 11:29N 40°41' E 028°51'1 1.4
2016-Jan-03 10:33N 40°41' E 028°53'1 1.2
2016-Jan-03 09:30N 40°42' E 028°54'1 1.1
2016-Jan-03 08:33N 40°43' E 028°55'1 1.0
2016-Jan-03 07:32N 40°44' E 028°56'1 0.9
2016-Jan-03 06:33N 40°45' E 028°57'1 0.9
2016-Jan-03 05:29N 40°45' E 028°57'4 4.3
2016-Jan-03 04:33N 40°48' E 028°53'23310.0
2016-Jan-02 05:10N 37°41' E 025°51'914.1
2016-Jan-02 04:33N 37°33' E 025°52'  

Dump ship's entire track history